sensor_id;sensor_type;location;lat;lon;timestamp;P1;durP1;ratioP1;P2;durP2;ratioP2
1358;SDS011;673;48.098;14.422;2023-09-30T00:00:56;3.37;;;1.73;;
1358;SDS011;673;48.098;14.422;2023-09-30T00:03:23;2.03;;;1.83;;
1358;SDS011;673;48.098;14.422;2023-09-30T00:05:51;4.10;;;3.43;;
1358;SDS011;673;48.098;14.422;2023-09-30T00:08:18;3.73;;;1.90;;
1358;SDS011;673;48.098;14.422;2023-09-30T00:10:45;1.77;;;1.30;;
1358;SDS011;673;48.098;14.422;2023-09-30T00:13:12;1.77;;;1.67;;
1358;SDS011;673;48.098;14.422;2023-09-30T00:15:39;4.20;;;2.50;;
1358;SDS011;673;48.098;14.422;2023-09-30T00:18:06;2.20;;;1.47;;
1358;SDS011;673;48.098;14.422;2023-09-30T00:20:34;3.73;;;2.47;;
1358;SDS011;673;48.098;14.422;2023-09-30T00:23:03;3.03;;;2.30;;
1358;SDS011;673;48.098;14.422;2023-09-30T00:25:31;2.40;;;2.17;;
1358;SDS011;673;48.098;14.422;2023-09-30T00:27:58;4.70;;;1.90;;
1358;SDS011;673;48.098;14.422;2023-09-30T00:30:25;2.17;;;2.00;;
1358;SDS011;673;48.098;14.422;2023-09-30T00:32:52;2.90;;;2.17;;
1358;SDS011;673;48.098;14.422;2023-09-30T00:35:19;6.03;;;2.60;;
1358;SDS011;673;48.098;14.422;2023-09-30T00:37:46;6.43;;;3.27;;
1358;SDS011;673;48.098;14.422;2023-09-30T00:40:14;2.87;;;2.53;;
1358;SDS011;673;48.098;14.422;2023-09-30T00:42:41;3.87;;;2.00;;
1358;SDS011;673;48.098;14.422;2023-09-30T00:45:09;2.80;;;2.20;;
1358;SDS011;673;48.098;14.422;2023-09-30T00:47:36;2.83;;;2.63;;
1358;SDS011;673;48.098;14.422;2023-09-30T00:50:03;4.90;;;3.73;;
1358;SDS011;673;48.098;14.422;2023-09-30T00:52:33;2.53;;;2.30;;
1358;SDS011;673;48.098;14.422;2023-09-30T00:55:02;6.27;;;2.70;;
1358;SDS011;673;48.098;14.422;2023-09-30T00:57:32;4.10;;;2.70;;
1358;SDS011;673;48.098;14.422;2023-09-30T01:00:00;5.80;;;3.00;;
1358;SDS011;673;48.098;14.422;2023-09-30T01:02:28;3.10;;;2.77;;
1358;SDS011;673;48.098;14.422;2023-09-30T01:04:55;5.40;;;2.27;;
1358;SDS011;673;48.098;14.422;2023-09-30T01:07:23;3.70;;;2.70;;
1358;SDS011;673;48.098;14.422;2023-09-30T01:09:50;2.97;;;2.53;;
1358;SDS011;673;48.098;14.422;2023-09-30T01:12:17;9.40;;;4.03;;
1358;SDS011;673;48.098;14.422;2023-09-30T01:14:46;5.57;;;3.53;;
1358;SDS011;673;48.098;14.422;2023-09-30T01:17:12;6.17;;;3.37;;
1358;SDS011;673;48.098;14.422;2023-09-30T01:19:40;4.00;;;2.80;;
1358;SDS011;673;48.098;14.422;2023-09-30T01:22:10;6.97;;;5.57;;
1358;SDS011;673;48.098;14.422;2023-09-30T01:24:40;6.20;;;3.87;;
1358;SDS011;673;48.098;14.422;2023-09-30T01:27:08;5.93;;;4.17;;
1358;SDS011;673;48.098;14.422;2023-09-30T01:29:35;7.43;;;4.90;;
1358;SDS011;673;48.098;14.422;2023-09-30T01:32:03;12.23;;;4.40;;
1358;SDS011;673;48.098;14.422;2023-09-30T01:34:32;4.80;;;4.33;;
1358;SDS011;673;48.098;14.422;2023-09-30T01:37:00;9.00;;;5.17;;
1358;SDS011;673;48.098;14.422;2023-09-30T01:39:28;5.00;;;3.77;;
1358;SDS011;673;48.098;14.422;2023-09-30T01:41:56;4.93;;;3.60;;
1358;SDS011;673;48.098;14.422;2023-09-30T01:44:23;8.30;;;4.37;;
1358;SDS011;673;48.098;14.422;2023-09-30T01:46:50;5.87;;;4.10;;
1358;SDS011;673;48.098;14.422;2023-09-30T01:49:17;9.70;;;4.47;;
1358;SDS011;673;48.098;14.422;2023-09-30T01:51:44;7.23;;;4.07;;
1358;SDS011;673;48.098;14.422;2023-09-30T01:54:12;6.50;;;4.57;;
1358;SDS011;673;48.098;14.422;2023-09-30T01:56:40;5.87;;;4.40;;
1358;SDS011;673;48.098;14.422;2023-09-30T01:59:07;6.33;;;4.20;;
1358;SDS011;673;48.098;14.422;2023-09-30T02:01:34;7.03;;;4.70;;
1358;SDS011;673;48.098;14.422;2023-09-30T02:04:01;8.70;;;4.47;;
1358;SDS011;673;48.098;14.422;2023-09-30T02:06:28;9.97;;;4.20;;
1358;SDS011;673;48.098;14.422;2023-09-30T02:08:55;9.17;;;4.77;;
1358;SDS011;673;48.098;14.422;2023-09-30T02:11:22;5.80;;;4.30;;
1358;SDS011;673;48.098;14.422;2023-09-30T02:13:50;11.83;;;5.17;;
1358;SDS011;673;48.098;14.422;2023-09-30T02:16:17;6.90;;;4.30;;
1358;SDS011;673;48.098;14.422;2023-09-30T02:18:44;15.00;;;5.30;;
1358;SDS011;673;48.098;14.422;2023-09-30T02:21:11;8.20;;;5.03;;
1358;SDS011;673;48.098;14.422;2023-09-30T02:23:38;9.37;;;4.53;;
1358;SDS011;673;48.098;14.422;2023-09-30T02:26:05;10.37;;;5.43;;
1358;SDS011;673;48.098;14.422;2023-09-30T02:28:32;8.63;;;5.17;;
1358;SDS011;673;48.098;14.422;2023-09-30T02:31:01;9.00;;;4.30;;
1358;SDS011;673;48.098;14.422;2023-09-30T02:33:28;10.53;;;5.23;;
1358;SDS011;673;48.098;14.422;2023-09-30T02:35:55;12.30;;;5.33;;
1358;SDS011;673;48.098;14.422;2023-09-30T02:38:22;8.23;;;4.93;;
1358;SDS011;673;48.098;14.422;2023-09-30T02:40:50;6.23;;;4.67;;
1358;SDS011;673;48.098;14.422;2023-09-30T02:43:17;10.53;;;4.97;;
1358;SDS011;673;48.098;14.422;2023-09-30T02:45:45;10.60;;;5.63;;
1358;SDS011;673;48.098;14.422;2023-09-30T02:48:13;11.97;;;5.77;;
1358;SDS011;673;48.098;14.422;2023-09-30T02:50:41;10.70;;;5.40;;
1358;SDS011;673;48.098;14.422;2023-09-30T02:53:10;9.00;;;6.90;;
1358;SDS011;673;48.098;14.422;2023-09-30T02:55:38;10.93;;;6.50;;
1358;SDS011;673;48.098;14.422;2023-09-30T02:58:05;8.50;;;5.37;;
1358;SDS011;673;48.098;14.422;2023-09-30T03:00:32;11.30;;;6.37;;
1358;SDS011;673;48.098;14.422;2023-09-30T03:03:00;11.83;;;5.43;;
1358;SDS011;673;48.098;14.422;2023-09-30T03:05:30;9.60;;;5.00;;
1358;SDS011;673;48.098;14.422;2023-09-30T03:07:58;12.03;;;6.20;;
1358;SDS011;673;48.098;14.422;2023-09-30T03:10:26;7.50;;;4.60;;
1358;SDS011;673;48.098;14.422;2023-09-30T03:12:54;9.70;;;5.93;;
1358;SDS011;673;48.098;14.422;2023-09-30T03:15:21;11.77;;;5.03;;
1358;SDS011;673;48.098;14.422;2023-09-30T03:17:49;13.57;;;5.63;;
1358;SDS011;673;48.098;14.422;2023-09-30T03:20:16;10.50;;;6.17;;
1358;SDS011;673;48.098;14.422;2023-09-30T03:22:46;9.97;;;4.33;;
1358;SDS011;673;48.098;14.422;2023-09-30T03:25:14;10.30;;;5.50;;
1358;SDS011;673;48.098;14.422;2023-09-30T03:27:42;11.03;;;4.57;;
1358;SDS011;673;48.098;14.422;2023-09-30T03:30:11;6.97;;;4.70;;
1358;SDS011;673;48.098;14.422;2023-09-30T03:32:39;7.40;;;4.60;;
1358;SDS011;673;48.098;14.422;2023-09-30T03:35:07;10.57;;;5.27;;
1358;SDS011;673;48.098;14.422;2023-09-30T03:37:36;10.30;;;6.43;;
1358;SDS011;673;48.098;14.422;2023-09-30T03:40:05;10.10;;;4.93;;
1358;SDS011;673;48.098;14.422;2023-09-30T03:42:39;13.07;;;5.80;;
1358;SDS011;673;48.098;14.422;2023-09-30T03:45:08;15.53;;;6.20;;
1358;SDS011;673;48.098;14.422;2023-09-30T03:47:36;9.77;;;5.67;;
1358;SDS011;673;48.098;14.422;2023-09-30T03:50:04;10.30;;;4.80;;
1358;SDS011;673;48.098;14.422;2023-09-30T03:52:37;10.10;;;5.80;;
1358;SDS011;673;48.098;14.422;2023-09-30T03:55:06;8.73;;;5.10;;
1358;SDS011;673;48.098;14.422;2023-09-30T03:57:36;10.50;;;4.50;;
1358;SDS011;673;48.098;14.422;2023-09-30T04:00:04;10.63;;;5.20;;
1358;SDS011;673;48.098;14.422;2023-09-30T04:02:32;10.23;;;3.90;;
1358;SDS011;673;48.098;14.422;2023-09-30T04:04:59;11.93;;;4.67;;
1358;SDS011;673;48.098;14.422;2023-09-30T04:07:29;7.70;;;4.13;;
1358;SDS011;673;48.098;14.422;2023-09-30T04:09:57;14.50;;;4.73;;
1358;SDS011;673;48.098;14.422;2023-09-30T04:12:27;8.70;;;4.57;;
1358;SDS011;673;48.098;14.422;2023-09-30T04:14:54;9.60;;;6.50;;
1358;SDS011;673;48.098;14.422;2023-09-30T04:17:23;9.93;;;4.97;;
1358;SDS011;673;48.098;14.422;2023-09-30T04:19:52;11.40;;;4.90;;
1358;SDS011;673;48.098;14.422;2023-09-30T04:22:18;12.03;;;5.60;;
1358;SDS011;673;48.098;14.422;2023-09-30T04:24:46;10.70;;;5.40;;
1358;SDS011;673;48.098;14.422;2023-09-30T04:27:14;9.53;;;4.07;;
1358;SDS011;673;48.098;14.422;2023-09-30T04:29:42;15.90;;;5.40;;
1358;SDS011;673;48.098;14.422;2023-09-30T04:32:09;8.13;;;4.70;;
1358;SDS011;673;48.098;14.422;2023-09-30T04:34:36;14.67;;;6.43;;
1358;SDS011;673;48.098;14.422;2023-09-30T04:37:04;8.90;;;4.23;;
1358;SDS011;673;48.098;14.422;2023-09-30T04:39:30;14.27;;;7.73;;
1358;SDS011;673;48.098;14.422;2023-09-30T04:42:00;11.97;;;6.20;;
1358;SDS011;673;48.098;14.422;2023-09-30T04:44:29;13.57;;;6.03;;
1358;SDS011;673;48.098;14.422;2023-09-30T04:46:57;7.23;;;4.50;;
1358;SDS011;673;48.098;14.422;2023-09-30T04:49:25;12.83;;;5.70;;
1358;SDS011;673;48.098;14.422;2023-09-30T04:51:52;13.07;;;6.20;;
1358;SDS011;673;48.098;14.422;2023-09-30T04:54:20;9.50;;;5.20;;
1358;SDS011;673;48.098;14.422;2023-09-30T04:56:47;17.00;;;6.80;;
1358;SDS011;673;48.098;14.422;2023-09-30T04:59:16;15.73;;;7.90;;
1358;SDS011;673;48.098;14.422;2023-09-30T05:01:43;12.23;;;6.20;;
1358;SDS011;673;48.098;14.422;2023-09-30T05:04:11;15.60;;;6.47;;
1358;SDS011;673;48.098;14.422;2023-09-30T05:06:38;13.07;;;5.87;;
1358;SDS011;673;48.098;14.422;2023-09-30T05:09:05;14.07;;;6.83;;
1358;SDS011;673;48.098;14.422;2023-09-30T05:11:33;13.43;;;5.87;;
1358;SDS011;673;48.098;14.422;2023-09-30T05:14:00;12.00;;;6.23;;
1358;SDS011;673;48.098;14.422;2023-09-30T05:16:30;11.40;;;5.27;;
1358;SDS011;673;48.098;14.422;2023-09-30T05:18:57;10.67;;;5.53;;
1358;SDS011;673;48.098;14.422;2023-09-30T05:21:25;11.90;;;7.13;;
1358;SDS011;673;48.098;14.422;2023-09-30T05:23:52;10.50;;;6.20;;
1358;SDS011;673;48.098;14.422;2023-09-30T05:26:19;13.93;;;6.30;;
1358;SDS011;673;48.098;14.422;2023-09-30T05:28:46;10.83;;;5.73;;
1358;SDS011;673;48.098;14.422;2023-09-30T05:31:13;10.70;;;5.60;;
1358;SDS011;673;48.098;14.422;2023-09-30T05:33:40;13.00;;;5.60;;
1358;SDS011;673;48.098;14.422;2023-09-30T05:36:07;14.87;;;6.57;;
1358;SDS011;673;48.098;14.422;2023-09-30T05:38:35;16.47;;;7.57;;
1358;SDS011;673;48.098;14.422;2023-09-30T05:41:02;12.43;;;6.40;;
1358;SDS011;673;48.098;14.422;2023-09-30T05:43:31;12.40;;;4.57;;
1358;SDS011;673;48.098;14.422;2023-09-30T05:45:58;16.70;;;8.00;;
1358;SDS011;673;48.098;14.422;2023-09-30T05:48:25;12.33;;;6.27;;
1358;SDS011;673;48.098;14.422;2023-09-30T05:50:52;13.50;;;6.53;;
1358;SDS011;673;48.098;14.422;2023-09-30T05:53:19;10.33;;;6.30;;
1358;SDS011;673;48.098;14.422;2023-09-30T05:55:47;13.67;;;5.10;;
1358;SDS011;673;48.098;14.422;2023-09-30T05:58:15;12.40;;;7.10;;
1358;SDS011;673;48.098;14.422;2023-09-30T06:00:43;10.13;;;5.30;;
1358;SDS011;673;48.098;14.422;2023-09-30T06:03:10;10.67;;;6.80;;
1358;SDS011;673;48.098;14.422;2023-09-30T06:05:39;12.93;;;5.93;;
1358;SDS011;673;48.098;14.422;2023-09-30T06:08:07;11.70;;;5.60;;
1358;SDS011;673;48.098;14.422;2023-09-30T06:10:35;10.93;;;5.93;;
1358;SDS011;673;48.098;14.422;2023-09-30T06:13:09;10.50;;;4.87;;
1358;SDS011;673;48.098;14.422;2023-09-30T06:15:37;22.37;;;6.60;;
1358;SDS011;673;48.098;14.422;2023-09-30T06:18:05;15.87;;;6.30;;
1358;SDS011;673;48.098;14.422;2023-09-30T06:20:32;14.27;;;5.83;;
1358;SDS011;673;48.098;14.422;2023-09-30T06:22:59;12.37;;;6.33;;
1358;SDS011;673;48.098;14.422;2023-09-30T06:25:26;11.27;;;5.90;;
1358;SDS011;673;48.098;14.422;2023-09-30T06:27:55;13.37;;;6.83;;
1358;SDS011;673;48.098;14.422;2023-09-30T06:30:23;15.77;;;5.27;;
1358;SDS011;673;48.098;14.422;2023-09-30T06:32:54;11.20;;;5.23;;
1358;SDS011;673;48.098;14.422;2023-09-30T06:35:22;11.53;;;6.00;;
1358;SDS011;673;48.098;14.422;2023-09-30T06:37:49;11.43;;;7.00;;
1358;SDS011;673;48.098;14.422;2023-09-30T06:40:16;11.33;;;4.57;;
1358;SDS011;673;48.098;14.422;2023-09-30T06:42:44;8.83;;;5.47;;
1358;SDS011;673;48.098;14.422;2023-09-30T06:45:11;11.23;;;3.73;;
1358;SDS011;673;48.098;14.422;2023-09-30T06:47:39;14.80;;;4.93;;
1358;SDS011;673;48.098;14.422;2023-09-30T06:50:08;9.50;;;4.60;;
1358;SDS011;673;48.098;14.422;2023-09-30T06:52:37;10.80;;;6.37;;
1358;SDS011;673;48.098;14.422;2023-09-30T06:55:06;9.13;;;4.60;;
1358;SDS011;673;48.098;14.422;2023-09-30T06:57:34;9.43;;;5.03;;
1358;SDS011;673;48.098;14.422;2023-09-30T07:00:04;9.70;;;4.13;;
1358;SDS011;673;48.098;14.422;2023-09-30T07:02:35;8.43;;;4.70;;
1358;SDS011;673;48.098;14.422;2023-09-30T07:05:06;8.73;;;6.00;;
1358;SDS011;673;48.098;14.422;2023-09-30T07:07:33;8.30;;;5.60;;
1358;SDS011;673;48.098;14.422;2023-09-30T07:10:00;13.20;;;4.83;;
1358;SDS011;673;48.098;14.422;2023-09-30T07:12:29;11.00;;;4.53;;
1358;SDS011;673;48.098;14.422;2023-09-30T07:14:56;7.67;;;4.33;;
1358;SDS011;673;48.098;14.422;2023-09-30T07:17:24;7.53;;;3.70;;
1358;SDS011;673;48.098;14.422;2023-09-30T07:19:51;9.13;;;4.73;;
1358;SDS011;673;48.098;14.422;2023-09-30T07:22:20;9.10;;;4.23;;
1358;SDS011;673;48.098;14.422;2023-09-30T07:24:47;8.70;;;4.80;;
1358;SDS011;673;48.098;14.422;2023-09-30T07:27:14;8.40;;;4.00;;
1358;SDS011;673;48.098;14.422;2023-09-30T07:29:41;6.70;;;4.17;;
1358;SDS011;673;48.098;14.422;2023-09-30T07:32:07;9.03;;;3.60;;
1358;SDS011;673;48.098;14.422;2023-09-30T07:34:34;6.23;;;3.30;;
1358;SDS011;673;48.098;14.422;2023-09-30T07:37:01;9.53;;;4.77;;
1358;SDS011;673;48.098;14.422;2023-09-30T07:39:30;11.23;;;4.80;;
1358;SDS011;673;48.098;14.422;2023-09-30T07:41:57;6.30;;;3.60;;
1358;SDS011;673;48.098;14.422;2023-09-30T07:44:24;12.43;;;4.43;;
1358;SDS011;673;48.098;14.422;2023-09-30T07:46:51;10.27;;;3.50;;
1358;SDS011;673;48.098;14.422;2023-09-30T07:49:18;6.40;;;2.60;;
1358;SDS011;673;48.098;14.422;2023-09-30T07:51:45;13.17;;;4.20;;
1358;SDS011;673;48.098;14.422;2023-09-30T07:54:12;6.70;;;2.90;;
1358;SDS011;673;48.098;14.422;2023-09-30T07:56:40;6.17;;;3.50;;
1358;SDS011;673;48.098;14.422;2023-09-30T07:59:07;6.37;;;3.60;;
1358;SDS011;673;48.098;14.422;2023-09-30T08:01:35;5.77;;;3.77;;
1358;SDS011;673;48.098;14.422;2023-09-30T08:04:02;9.73;;;3.90;;
1358;SDS011;673;48.098;14.422;2023-09-30T08:06:29;6.40;;;4.60;;
1358;SDS011;673;48.098;14.422;2023-09-30T08:08:56;4.90;;;1.93;;
1358;SDS011;673;48.098;14.422;2023-09-30T08:11:23;10.70;;;3.20;;
1358;SDS011;673;48.098;14.422;2023-09-30T08:13:54;10.97;;;3.40;;
1358;SDS011;673;48.098;14.422;2023-09-30T08:16:21;9.23;;;3.00;;
1358;SDS011;673;48.098;14.422;2023-09-30T08:18:47;8.00;;;4.73;;
1358;SDS011;673;48.098;14.422;2023-09-30T08:21:15;4.57;;;2.87;;
1358;SDS011;673;48.098;14.422;2023-09-30T08:23:41;6.87;;;3.30;;
1358;SDS011;673;48.098;14.422;2023-09-30T08:26:09;7.00;;;3.97;;
1358;SDS011;673;48.098;14.422;2023-09-30T08:28:36;8.20;;;3.13;;
1358;SDS011;673;48.098;14.422;2023-09-30T08:31:05;10.10;;;4.33;;
1358;SDS011;673;48.098;14.422;2023-09-30T08:33:32;7.83;;;3.43;;
1358;SDS011;673;48.098;14.422;2023-09-30T08:36:01;9.40;;;4.30;;
1358;SDS011;673;48.098;14.422;2023-09-30T08:38:32;7.30;;;3.07;;
1358;SDS011;673;48.098;14.422;2023-09-30T08:41:00;6.07;;;3.73;;
1358;SDS011;673;48.098;14.422;2023-09-30T08:43:28;7.83;;;4.17;;
1358;SDS011;673;48.098;14.422;2023-09-30T08:45:57;10.93;;;4.97;;
1358;SDS011;673;48.098;14.422;2023-09-30T08:48:27;8.17;;;4.27;;
1358;SDS011;673;48.098;14.422;2023-09-30T08:50:54;7.80;;;3.00;;
1358;SDS011;673;48.098;14.422;2023-09-30T08:53:22;9.67;;;4.50;;
1358;SDS011;673;48.098;14.422;2023-09-30T08:55:50;10.63;;;5.30;;
1358;SDS011;673;48.098;14.422;2023-09-30T08:58:20;10.30;;;6.00;;
1358;SDS011;673;48.098;14.422;2023-09-30T09:00:50;7.10;;;4.57;;
1358;SDS011;673;48.098;14.422;2023-09-30T09:03:18;7.40;;;3.40;;
1358;SDS011;673;48.098;14.422;2023-09-30T09:05:47;6.20;;;3.73;;
1358;SDS011;673;48.098;14.422;2023-09-30T09:08:21;7.70;;;3.57;;
1358;SDS011;673;48.098;14.422;2023-09-30T09:10:58;10.37;;;4.87;;
1358;SDS011;673;48.098;14.422;2023-09-30T09:13:28;6.40;;;3.40;;
1358;SDS011;673;48.098;14.422;2023-09-30T09:16:10;20.03;;;4.37;;
1358;SDS011;673;48.098;14.422;2023-09-30T09:18:37;5.43;;;3.80;;
1358;SDS011;673;48.098;14.422;2023-09-30T09:21:11;7.23;;;2.33;;
1358;SDS011;673;48.098;14.422;2023-09-30T09:23:39;3.90;;;2.40;;
1358;SDS011;673;48.098;14.422;2023-09-30T09:26:06;5.30;;;3.30;;
1358;SDS011;673;48.098;14.422;2023-09-30T09:28:34;6.17;;;2.57;;
1358;SDS011;673;48.098;14.422;2023-09-30T09:31:01;9.80;;;3.37;;
1358;SDS011;673;48.098;14.422;2023-09-30T09:33:34;7.23;;;2.60;;
1358;SDS011;673;48.098;14.422;2023-09-30T09:36:02;6.00;;;4.20;;
1358;SDS011;673;48.098;14.422;2023-09-30T09:38:41;4.80;;;2.50;;
1358;SDS011;673;48.098;14.422;2023-09-30T09:41:10;6.30;;;2.80;;
1358;SDS011;673;48.098;14.422;2023-09-30T09:43:37;5.20;;;2.70;;
1358;SDS011;673;48.098;14.422;2023-09-30T09:46:04;6.83;;;3.30;;
1358;SDS011;673;48.098;14.422;2023-09-30T09:48:34;7.13;;;2.17;;
1358;SDS011;673;48.098;14.422;2023-09-30T09:51:02;5.23;;;2.90;;
1358;SDS011;673;48.098;14.422;2023-09-30T09:53:31;5.20;;;3.73;;
1358;SDS011;673;48.098;14.422;2023-09-30T09:56:02;6.73;;;2.93;;
1358;SDS011;673;48.098;14.422;2023-09-30T09:58:32;8.23;;;3.63;;
1358;SDS011;673;48.098;14.422;2023-09-30T10:01:00;4.90;;;2.80;;
1358;SDS011;673;48.098;14.422;2023-09-30T10:03:28;6.23;;;2.60;;
1358;SDS011;673;48.098;14.422;2023-09-30T10:05:55;5.93;;;3.10;;
1358;SDS011;673;48.098;14.422;2023-09-30T10:08:28;7.80;;;3.43;;
1358;SDS011;673;48.098;14.422;2023-09-30T10:10:59;5.07;;;3.33;;
1358;SDS011;673;48.098;14.422;2023-09-30T10:19:14;5.70;;;3.47;;
1358;SDS011;673;48.098;14.422;2023-09-30T10:24:44;4.87;;;3.13;;
1358;SDS011;673;48.098;14.422;2023-09-30T10:30:13;8.33;;;3.63;;
1358;SDS011;673;48.098;14.422;2023-09-30T10:35:46;12.00;;;5.27;;
1358;SDS011;673;48.098;14.422;2023-09-30T10:41:03;11.90;;;4.20;;
1358;SDS011;673;48.098;14.422;2023-09-30T10:43:32;14.70;;;6.07;;
1358;SDS011;673;48.098;14.422;2023-09-30T10:46:00;14.93;;;5.50;;
1358;SDS011;673;48.098;14.422;2023-09-30T10:48:37;9.57;;;4.93;;
1358;SDS011;673;48.098;14.422;2023-09-30T10:51:12;10.47;;;4.33;;
1358;SDS011;673;48.098;14.422;2023-09-30T10:53:46;12.13;;;5.10;;
1358;SDS011;673;48.098;14.422;2023-09-30T10:56:16;14.40;;;4.67;;
1358;SDS011;673;48.098;14.422;2023-09-30T10:58:45;10.53;;;6.40;;
1358;SDS011;673;48.098;14.422;2023-09-30T11:01:17;8.90;;;3.50;;
1358;SDS011;673;48.098;14.422;2023-09-30T11:03:46;11.63;;;4.33;;
1358;SDS011;673;48.098;14.422;2023-09-30T11:06:15;8.70;;;4.27;;
1358;SDS011;673;48.098;14.422;2023-09-30T11:08:45;8.10;;;4.40;;
1358;SDS011;673;48.098;14.422;2023-09-30T11:11:16;9.80;;;4.50;;
1358;SDS011;673;48.098;14.422;2023-09-30T11:13:43;9.87;;;5.47;;
1358;SDS011;673;48.098;14.422;2023-09-30T11:16:11;13.97;;;6.93;;
1358;SDS011;673;48.098;14.422;2023-09-30T11:18:38;9.80;;;5.43;;
1358;SDS011;673;48.098;14.422;2023-09-30T11:21:06;8.57;;;5.30;;
1358;SDS011;673;48.098;14.422;2023-09-30T11:23:35;10.07;;;4.60;;
1358;SDS011;673;48.098;14.422;2023-09-30T11:26:03;11.67;;;6.40;;
1358;SDS011;673;48.098;14.422;2023-09-30T11:28:38;11.40;;;5.83;;
1358;SDS011;673;48.098;14.422;2023-09-30T11:31:11;12.00;;;5.13;;
1358;SDS011;673;48.098;14.422;2023-09-30T11:33:49;10.87;;;5.10;;
1358;SDS011;673;48.098;14.422;2023-09-30T11:36:17;11.90;;;6.00;;
1358;SDS011;673;48.098;14.422;2023-09-30T11:38:46;12.83;;;5.70;;
1358;SDS011;673;48.098;14.422;2023-09-30T11:41:14;11.27;;;5.47;;
1358;SDS011;673;48.098;14.422;2023-09-30T11:43:57;15.40;;;7.07;;
1358;SDS011;673;48.098;14.422;2023-09-30T11:46:28;11.00;;;5.60;;
1358;SDS011;673;48.098;14.422;2023-09-30T11:48:58;12.10;;;5.50;;
1358;SDS011;673;48.098;14.422;2023-09-30T11:51:26;13.13;;;6.50;;
1358;SDS011;673;48.098;14.422;2023-09-30T11:53:54;15.60;;;7.27;;
1358;SDS011;673;48.098;14.422;2023-09-30T11:56:23;19.73;;;8.27;;
1358;SDS011;673;48.098;14.422;2023-09-30T11:58:54;24.30;;;9.87;;
1358;SDS011;673;48.098;14.422;2023-09-30T12:01:21;19.00;;;9.40;;
1358;SDS011;673;48.098;14.422;2023-09-30T12:03:51;16.10;;;9.20;;
1358;SDS011;673;48.098;14.422;2023-09-30T12:06:21;19.33;;;10.50;;
1358;SDS011;673;48.098;14.422;2023-09-30T12:08:49;24.17;;;10.37;;
1358;SDS011;673;48.098;14.422;2023-09-30T12:11:17;19.30;;;10.97;;
1358;SDS011;673;48.098;14.422;2023-09-30T12:13:44;23.63;;;11.87;;
1358;SDS011;673;48.098;14.422;2023-09-30T12:16:13;21.40;;;12.17;;
1358;SDS011;673;48.098;14.422;2023-09-30T12:18:40;28.70;;;10.00;;
1358;SDS011;673;48.098;14.422;2023-09-30T12:21:09;17.33;;;10.20;;
1358;SDS011;673;48.098;14.422;2023-09-30T12:23:36;18.13;;;10.23;;
1358;SDS011;673;48.098;14.422;2023-09-30T12:26:03;19.67;;;10.93;;
1358;SDS011;673;48.098;14.422;2023-09-30T12:28:31;20.57;;;10.20;;
1358;SDS011;673;48.098;14.422;2023-09-30T12:30:58;18.37;;;10.73;;
1358;SDS011;673;48.098;14.422;2023-09-30T12:33:28;25.37;;;11.83;;
1358;SDS011;673;48.098;14.422;2023-09-30T12:35:55;28.27;;;13.10;;
1358;SDS011;673;48.098;14.422;2023-09-30T12:38:24;19.47;;;9.30;;
1358;SDS011;673;48.098;14.422;2023-09-30T12:40:52;20.20;;;10.50;;
1358;SDS011;673;48.098;14.422;2023-09-30T12:43:20;22.10;;;10.53;;
1358;SDS011;673;48.098;14.422;2023-09-30T12:45:47;26.43;;;11.73;;
1358;SDS011;673;48.098;14.422;2023-09-30T12:48:14;21.30;;;10.47;;
1358;SDS011;673;48.098;14.422;2023-09-30T12:50:42;18.63;;;10.23;;
1358;SDS011;673;48.098;14.422;2023-09-30T12:53:09;14.93;;;7.43;;
1358;SDS011;673;48.098;14.422;2023-09-30T12:55:38;19.40;;;9.37;;
1358;SDS011;673;48.098;14.422;2023-09-30T12:58:05;20.97;;;8.47;;
1358;SDS011;673;48.098;14.422;2023-09-30T13:00:33;14.97;;;8.17;;
1358;SDS011;673;48.098;14.422;2023-09-30T13:03:01;16.53;;;8.67;;
1358;SDS011;673;48.098;14.422;2023-09-30T13:05:28;16.53;;;8.17;;
1358;SDS011;673;48.098;14.422;2023-09-30T13:07:55;16.40;;;8.27;;
1358;SDS011;673;48.098;14.422;2023-09-30T13:10:22;18.90;;;9.10;;
1358;SDS011;673;48.098;14.422;2023-09-30T13:12:51;19.20;;;8.90;;
1358;SDS011;673;48.098;14.422;2023-09-30T13:15:19;15.53;;;7.97;;
1358;SDS011;673;48.098;14.422;2023-09-30T13:17:46;22.40;;;9.27;;
1358;SDS011;673;48.098;14.422;2023-09-30T13:20:13;17.17;;;8.27;;
1358;SDS011;673;48.098;14.422;2023-09-30T13:22:40;15.67;;;9.97;;
1358;SDS011;673;48.098;14.422;2023-09-30T13:25:08;16.37;;;10.10;;
1358;SDS011;673;48.098;14.422;2023-09-30T13:27:37;14.10;;;7.90;;
1358;SDS011;673;48.098;14.422;2023-09-30T13:30:07;16.63;;;7.33;;
1358;SDS011;673;48.098;14.422;2023-09-30T13:32:35;19.87;;;8.57;;
1358;SDS011;673;48.098;14.422;2023-09-30T13:35:02;19.90;;;8.70;;
1358;SDS011;673;48.098;14.422;2023-09-30T13:37:30;16.17;;;9.67;;
1358;SDS011;673;48.098;14.422;2023-09-30T13:39:58;17.03;;;8.43;;
1358;SDS011;673;48.098;14.422;2023-09-30T13:42:26;16.23;;;7.70;;
1358;SDS011;673;48.098;14.422;2023-09-30T13:44:54;15.17;;;7.37;;
1358;SDS011;673;48.098;14.422;2023-09-30T13:47:24;14.93;;;8.83;;
1358;SDS011;673;48.098;14.422;2023-09-30T13:49:51;15.63;;;7.70;;
1358;SDS011;673;48.098;14.422;2023-09-30T13:52:18;13.70;;;8.20;;
1358;SDS011;673;48.098;14.422;2023-09-30T13:54:45;13.97;;;6.90;;
1358;SDS011;673;48.098;14.422;2023-09-30T13:57:12;15.80;;;6.10;;
1358;SDS011;673;48.098;14.422;2023-09-30T13:59:40;15.13;;;6.50;;
1358;SDS011;673;48.098;14.422;2023-09-30T14:02:08;13.77;;;6.73;;
1358;SDS011;673;48.098;14.422;2023-09-30T14:04:36;13.77;;;7.20;;
1358;SDS011;673;48.098;14.422;2023-09-30T14:07:03;14.20;;;7.13;;
1358;SDS011;673;48.098;14.422;2023-09-30T14:09:30;13.80;;;7.30;;
1358;SDS011;673;48.098;14.422;2023-09-30T14:11:58;13.67;;;7.27;;
1358;SDS011;673;48.098;14.422;2023-09-30T14:14:24;9.40;;;5.30;;
1358;SDS011;673;48.098;14.422;2023-09-30T14:16:51;11.97;;;5.47;;
1358;SDS011;673;48.098;14.422;2023-09-30T14:19:18;9.10;;;5.30;;
1358;SDS011;673;48.098;14.422;2023-09-30T14:21:47;10.77;;;5.37;;
1358;SDS011;673;48.098;14.422;2023-09-30T14:24:14;9.70;;;5.20;;
1358;SDS011;673;48.098;14.422;2023-09-30T14:26:42;11.33;;;5.73;;
1358;SDS011;673;48.098;14.422;2023-09-30T14:29:09;10.50;;;6.60;;
1358;SDS011;673;48.098;14.422;2023-09-30T14:31:37;10.80;;;4.70;;
1358;SDS011;673;48.098;14.422;2023-09-30T14:34:04;9.53;;;4.40;;
1358;SDS011;673;48.098;14.422;2023-09-30T14:36:31;9.53;;;4.90;;
1358;SDS011;673;48.098;14.422;2023-09-30T14:39:01;8.43;;;4.93;;
1358;SDS011;673;48.098;14.422;2023-09-30T14:41:30;6.53;;;3.63;;
1358;SDS011;673;48.098;14.422;2023-09-30T14:43:57;8.13;;;4.60;;
1358;SDS011;673;48.098;14.422;2023-09-30T14:46:25;6.13;;;2.87;;
1358;SDS011;673;48.098;14.422;2023-09-30T14:48:52;7.53;;;3.20;;
1358;SDS011;673;48.098;14.422;2023-09-30T14:51:22;4.47;;;3.07;;
1358;SDS011;673;48.098;14.422;2023-09-30T14:53:49;5.80;;;3.63;;
1358;SDS011;673;48.098;14.422;2023-09-30T14:56:18;10.50;;;4.23;;
1358;SDS011;673;48.098;14.422;2023-09-30T14:58:45;5.37;;;3.13;;
1358;SDS011;673;48.098;14.422;2023-09-30T15:01:12;6.67;;;4.47;;
1358;SDS011;673;48.098;14.422;2023-09-30T15:03:39;7.57;;;3.10;;
1358;SDS011;673;48.098;14.422;2023-09-30T15:06:06;10.10;;;4.60;;
1358;SDS011;673;48.098;14.422;2023-09-30T15:08:34;5.17;;;3.00;;
1358;SDS011;673;48.098;14.422;2023-09-30T15:11:01;6.10;;;3.10;;
1358;SDS011;673;48.098;14.422;2023-09-30T15:13:30;10.90;;;3.83;;
1358;SDS011;673;48.098;14.422;2023-09-30T15:15:57;9.17;;;4.07;;
1358;SDS011;673;48.098;14.422;2023-09-30T15:18:24;9.20;;;3.87;;
1358;SDS011;673;48.098;14.422;2023-09-30T15:20:51;6.53;;;3.23;;
1358;SDS011;673;48.098;14.422;2023-09-30T15:23:18;6.60;;;2.80;;
1358;SDS011;673;48.098;14.422;2023-09-30T15:25:45;7.60;;;3.97;;
1358;SDS011;673;48.098;14.422;2023-09-30T15:28:12;8.90;;;3.80;;
1358;SDS011;673;48.098;14.422;2023-09-30T15:30:41;7.13;;;2.53;;